Time;durP1;ratioP1;P1;durP2;ratioP2;P2;SDS_P1;SDS_P2;PMS_P1;PMS_P2;Temp;Humidity;BMP_temperature;BMP_pressure;BME280_temperature;BME280_humidity;BME280_pressure;Samples;Min_cycle;Max_cycle;Signal;HPM_P1;HPM_P2
2022/06/16 00:01:08;;;;;;;3.97;3.60;;;;;;;13.80;84.33;97849.31;6235929;28;20692;-82
2022/06/16 00:04:10;;;;;;;4.40;3.97;;;;;;;13.81;84.04;97850.16;6213464;28;20293;-82
2022/06/16 00:07:16;;;;;;;5.17;4.37;;;;;;;13.74;84.78;97849.06;6230332;28;20254;-82
2022/06/16 00:10:19;;;;;;;5.33;4.67;;;;;;;13.68;85.18;97838.00;6214206;28;20738;-82
2022/06/16 00:13:21;;;;;;;7.20;4.00;;;;;;;13.63;84.83;97842.06;6213187;28;20320;-82
2022/06/16 00:16:24;;;;;;;5.47;4.10;;;;;;;13.55;85.07;97840.09;6210918;28;20227;-82
2022/06/16 00:19:26;;;;;;;5.30;4.50;;;;;;;13.51;85.29;97844.00;6216723;28;20228;-83
2022/06/16 00:22:28;;;;;;;5.83;4.50;;;;;;;13.48;85.58;97846.06;6261900;28;20314;-83
2022/06/16 00:25:32;;;;;;;5.87;4.73;;;;;;;13.45;85.61;97836.59;6233399;28;20233;-83
2022/06/16 00:28:34;;;;;;;7.30;4.30;;;;;;;13.47;85.65;97831.16;6218372;28;20231;-83
2022/06/16 00:31:37;;;;;;;5.00;4.40;;;;;;;13.45;86.07;97830.47;6221399;28;20282;-83
2022/06/16 00:34:39;;;;;;;5.33;4.83;;;;;;;13.44;86.19;97828.78;6233409;28;20319;-82
2022/06/16 00:37:41;;;;;;;5.47;4.43;;;;;;;13.44;85.72;97834.09;6211813;28;20224;-82
2022/06/16 00:40:44;;;;;;;5.80;5.00;;;;;;;13.42;86.22;97828.91;6191080;28;20359;-82
2022/06/16 00:43:47;;;;;;;5.37;4.50;;;;;;;13.40;85.94;97825.56;6206285;28;20327;-82
2022/06/16 00:46:50;;;;;;;4.87;4.37;;;;;;;13.35;85.89;97822.50;6219048;28;20311;-82
2022/06/16 00:50:03;;;;;;;5.13;4.47;;;;;;;13.35;86.36;97824.31;6243865;28;20544;-82
2022/06/16 00:53:05;;;;;;;5.23;4.60;;;;;;;13.34;85.74;97819.97;6213035;28;20228;-82
2022/06/16 00:56:10;;;;;;;5.07;4.50;;;;;;;13.32;86.19;97821.91;6212084;28;20231;-82
2022/06/16 00:59:12;;;;;;;4.60;4.13;;;;;;;13.27;85.85;97820.53;6212131;28;20739;-82
2022/06/16 01:02:15;;;;;;;4.87;3.97;;;;;;;13.27;86.20;97817.03;6244772;28;20242;-83
2022/06/16 01:05:31;;;;;;;5.60;4.00;;;;;;;13.22;85.78;97811.28;6197426;28;20236;-83
2022/06/16 01:08:33;;;;;;;4.87;4.37;;;;;;;13.22;85.77;97814.78;6244316;28;20714;-83
2022/06/16 01:15:24;;;;;;;4.23;3.87;;;;;;;13.16;86.44;97806.56;6229767;28;20487;-83
2022/06/16 01:18:43;;;;;;;4.47;4.07;;;;;;;13.15;85.98;97805.72;6236337;28;20616;-83
2022/06/16 01:22:08;;;;;;;5.87;4.03;;;;;;;13.15;86.09;97805.72;6236263;28;20250;-83
2022/06/16 01:25:33;;;;;;;5.77;4.47;;;;;;;13.11;85.72;97804.25;6226926;28;20232;-83
2022/06/16 01:29:17;;;;;;;4.57;4.20;;;;;;;13.06;86.16;97814.44;6215326;28;20688;-83
2022/06/16 01:32:33;;;;;;;3.90;3.60;;;;;;;13.01;85.94;97803.41;6166063;28;20225;-83
2022/06/16 01:35:50;;;;;;;5.30;4.77;;;;;;;12.96;86.23;97802.97;6181517;28;20464;-83
2022/06/16 01:39:03;;;;;;;5.20;4.23;;;;;;;12.92;86.58;97804.22;6182071;28;20353;-83
2022/06/16 01:42:23;;;;;;;6.67;4.77;;;;;;;12.93;86.04;97813.84;6181876;28;20237;-83
2022/06/16 01:45:55;;;;;;;4.10;3.70;;;;;;;12.88;86.24;97803.63;6165248;28;20372;-83
2022/06/16 01:49:04;;;;;;;5.90;3.80;;;;;;;12.84;86.26;97806.69;6166804;28;20229;-83
2022/06/16 01:52:33;;;;;;;4.87;4.47;;;;;;;12.82;85.96;97798.03;6143406;28;20230;-83
2022/06/16 01:55:40;;;;;;;5.83;4.87;;;;;;;12.80;86.17;97798.16;6149366;28;20229;-83
2022/06/16 01:58:49;;;;;;;5.07;4.37;;;;;;;12.76;86.61;97798.59;6177520;28;20316;-83
2022/06/16 02:01:59;;;;;;;7.40;4.33;;;;;;;12.74;86.33;97803.19;6144243;28;20291;-83
2022/06/16 02:05:25;;;;;;;4.63;4.20;;;;;;;12.72;86.44;97798.00;6149677;28;20324;-83
2022/06/16 02:08:45;;;;;;;4.70;4.30;;;;;;;12.69;86.64;97786.84;6191105;28;20640;-83
2022/06/16 02:11:47;;;;;;;5.27;4.77;;;;;;;12.70;86.38;97791.16;6183115;28;20264;-83
2022/06/16 02:15:05;;;;;;;4.70;4.30;;;;;;;12.67;86.74;97789.63;6197547;28;20331;-83
2022/06/16 02:18:26;;;;;;;3.70;3.40;;;;;;;12.66;86.68;97792.41;6199343;28;20232;-83
2022/06/16 02:21:40;;;;;;;5.43;4.40;;;;;;;12.62;86.74;97797.13;6214946;28;20244;-83
2022/06/16 02:24:43;;;;;;;5.43;4.60;;;;;;;12.61;86.61;97795.44;6215316;28;20242;-83
2022/06/16 02:27:47;;;;;;;6.57;4.73;;;;;;;12.57;86.64;97794.06;6231497;28;20231;-83
2022/06/16 02:30:56;;;;;;;5.53;4.33;;;;;;;12.57;86.94;97791.41;6222543;28;20585;-83
2022/06/16 02:34:11;;;;;;;5.27;4.00;;;;;;;12.61;86.65;97795.44;6214822;28;20378;-83
2022/06/16 02:37:44;;;;;;;4.87;3.83;;;;;;;12.64;86.62;97792.53;6215419;28;20247;-83
2022/06/16 02:41:10;;;;;;;5.27;4.53;;;;;;;12.64;86.66;97789.91;6231984;28;20698;-83
2022/06/16 02:44:32;;;;;;;5.13;4.40;;;;;;;12.60;86.59;97790.28;6215671;28;20885;-83
2022/06/16 02:48:11;;;;;;;5.37;4.30;;;;;;;12.55;86.12;97791.53;6231110;28;20224;-83
2022/06/16 02:51:21;;;;;;;6.67;4.40;;;;;;;12.52;86.28;97796.25;6230418;28;20307;-83
2022/06/16 02:54:36;;;;;;;4.40;4.00;;;;;;;12.49;86.45;97789.41;6198007;28;20761;-83
2022/06/16 02:57:54;;;;;;;5.40;4.10;;;;;;;12.51;86.48;97792.75;6190316;28;20315;-83
2022/06/16 03:01:12;;;;;;;6.17;4.23;;;;;;;12.51;86.26;97790.13;6191383;28;20319;-83
2022/06/16 03:04:16;;;;;;;5.43;4.30;;;;;;;12.52;86.21;97796.25;6228466;28;20236;-83
2022/06/16 03:07:21;;;;;;;6.20;4.77;;;;;;;12.47;86.43;97790.53;6197968;28;20238;-83
2022/06/16 03:10:50;;;;;;;4.87;4.37;;;;;;;12.42;86.25;97798.84;6219578;28;20229;-83
2022/06/16 03:13:53;;;;;;;4.43;4.03;;;;;;;12.39;86.15;97796.44;6229372;28;20255;-83
2022/06/16 03:17:02;;;;;;;6.80;4.40;;;;;;;12.35;86.46;97799.50;6213269;28;20228;-83
2022/06/16 03:20:10;;;;;;;5.00;4.50;;;;;;;12.36;86.57;97801.19;6230909;28;20717;-83
2022/06/16 03:23:13;;;;;;;5.40;4.90;;;;;;;12.38;86.58;97801.88;6213802;28;20259;-83
2022/06/16 03:26:17;;;;;;;5.00;4.60;;;;;;;12.38;86.34;97802.72;6213763;28;20454;-83
2022/06/16 03:29:20;;;;;;;4.80;4.40;;;;;;;12.39;86.71;97804.41;6213185;28;20329;-83
2022/06/16 03:32:22;;;;;;;4.80;4.30;;;;;;;12.43;86.84;97802.34;6250625;28;20237;-83
2022/06/16 03:35:24;;;;;;;6.67;4.97;;;;;;;12.45;86.85;97806.53;6237490;28;20227;-83
2022/06/16 03:38:43;;;;;;;6.70;4.90;;;;;;;12.49;86.80;97804.44;6236730;28;20829;-83
2022/06/16 03:41:49;;;;;;;5.40;4.90;;;;;;;12.53;87.01;97801.41;6238802;28;20726;-83
2022/06/16 03:44:52;;;;;;;4.90;4.50;;;;;;;12.61;87.08;97803.41;6242907;28;20234;-83
2022/06/16 03:47:55;;;;;;;4.83;4.37;;;;;;;12.66;86.42;97806.50;6222199;28;20234;-83
2022/06/16 03:50:58;;;;;;;7.23;4.53;;;;;;;12.61;86.32;97806.03;6236458;28;20253;-83
2022/06/16 03:54:01;;;;;;;7.87;5.03;;;;;;;12.57;86.41;97805.50;6238691;28;20241;-83
2022/06/16 03:57:04;;;;;;;4.73;4.33;;;;;;;12.53;86.81;97808.50;6220903;28;20241;-83
2022/06/16 04:00:07;;;;;;;6.17;4.60;;;;;;;12.54;86.68;97807.56;6237950;28;20230;-84
2022/06/16 04:06:45;;;;;;;5.10;4.63;;;;;;;12.58;86.71;97799.19;6213847;28;20239;-84
2022/06/16 04:09:48;;;;;;;5.60;4.50;;;;;;;12.61;86.93;97802.56;6227452;28;20320;-84
2022/06/16 04:12:51;;;;;;;5.37;4.87;;;;;;;12.68;87.02;97801.88;6239634;28;20231;-84
2022/06/16 04:16:00;;;;;;;5.43;4.93;;;;;;;12.69;87.06;97789.47;6236722;28;20238;-83
2022/06/16 04:19:02;;;;;;;6.03;5.30;;;;;;;12.65;87.66;97788.09;6237313;28;20261;-82
2022/06/16 04:22:12;;;;;;;5.90;5.33;;;;;;;12.69;87.74;97786.84;6230786;28;20644;-83
2022/06/16 04:25:33;;;;;;;5.40;5.00;;;;;;;12.76;87.64;97788.00;6255451;28;20223;-82
2022/06/16 04:28:40;;;;;;;5.50;5.00;;;;;;;12.83;87.36;97778.53;6237364;28;20227;-82
2022/06/16 04:31:44;;;;;;;6.00;4.73;;;;;;;12.87;87.93;97772.00;6228359;28;20236;-83
2022/06/16 04:34:48;;;;;;;5.57;4.80;;;;;;;12.91;87.67;97776.88;6245821;28;20232;-82
2022/06/16 04:37:50;;;;;;;5.73;5.23;;;;;;;12.99;87.90;97773.53;6228017;28;20305;-82
2022/06/16 04:40:53;;;;;;;6.10;5.60;;;;;;;13.05;88.06;97773.03;6228882;28;20236;-82
2022/06/16 04:43:55;;;;;;;5.30;4.80;;;;;;;13.15;88.11;97770.41;6229652;28;20334;-82
2022/06/16 04:46:58;;;;;;;5.57;5.07;;;;;;;13.26;87.99;97770.31;6228574;28;20228;-82
2022/06/16 04:50:02;;;;;;;5.77;5.17;;;;;;;13.32;87.56;97763.59;6228900;28;20584;-82
2022/06/16 04:53:06;;;;;;;5.20;4.70;;;;;;;13.38;88.03;97771.00;6228384;28;20370;-83
2022/06/16 04:56:24;;;;;;;7.07;4.97;;;;;;;13.38;87.64;97769.19;6167913;28;20328;-83
2022/06/16 04:59:32;;;;;;;6.43;5.27;;;;;;;13.48;87.90;97777.13;6185461;28;20317;-83
2022/06/16 05:02:53;;;;;;;5.53;4.93;;;;;;;13.56;87.86;97787.91;6205206;28;20256;-84
2022/06/16 05:06:16;;;;;;;5.67;5.17;;;;;;;13.62;87.37;97780.22;6190671;28;20604;-83
2022/06/16 05:09:51;;;;;;;6.10;5.50;;;;;;;13.67;87.60;97779.81;6161244;28;20255;-83
2022/06/16 05:13:12;;;;;;;5.80;5.17;;;;;;;13.73;87.64;97776.59;6190000;28;20232;-83
2022/06/16 05:16:34;;;;;;;5.43;4.93;;;;;;;13.84;87.69;97778.25;6195048;28;20383;-83
2022/06/16 05:19:47;;;;;;;5.20;4.70;;;;;;;13.95;87.57;97776.31;6200063;28;20233;-83
2022/06/16 05:23:10;;;;;;;5.50;5.00;;;;;;;14.04;87.20;97772.78;6190976;28;20724;-83
2022/06/16 05:26:46;;;;;;;4.80;4.50;;;;;;;14.12;87.28;97768.56;6187676;28;20220;-83
2022/06/16 05:30:05;;;;;;;5.27;4.87;;;;;;;14.19;87.43;97767.03;6205233;28;20231;-83
2022/06/16 05:33:28;;;;;;;5.07;4.57;;;;;;;14.30;87.16;97770.34;6223111;28;20280;-81
2022/06/16 05:36:51;;;;;;;5.33;4.57;;;;;;;14.44;87.11;97770.91;6237692;28;20373;-83
2022/06/16 05:40:03;;;;;;;5.13;4.73;;;;;;;14.54;87.03;97769.88;6237669;28;20706;-83
2022/06/16 05:43:24;;;;;;;7.27;4.90;;;;;;;14.64;86.78;97772.50;6239075;28;20235;-82
2022/06/16 05:46:58;;;;;;;6.43;4.80;;;;;;;14.73;86.67;97774.28;6252312;28;20304;-83
2022/06/16 05:50:05;;;;;;;5.10;4.60;;;;;;;14.82;86.39;97777.88;6237373;28;20327;-81
2022/06/16 05:53:07;;;;;;;4.73;4.33;;;;;;;14.87;86.09;97781.78;6236389;28;20314;-83
2022/06/16 05:56:14;;;;;;;5.47;4.73;;;;;;;14.98;86.13;97778.91;6235840;28;20330;-83
2022/06/16 05:59:16;;;;;;;5.17;4.77;;;;;;;15.09;86.02;97777.84;6219610;28;20234;-83
2022/06/16 06:02:23;;;;;;;8.10;5.27;;;;;;;15.19;86.12;97780.47;6227299;28;20247;-83
2022/06/16 06:05:30;;;;;;;5.07;4.60;;;;;;;15.27;86.42;97784.03;6215344;28;20231;-83
2022/06/16 06:19:23;;;;;;;5.77;5.27;;;;;;;15.91;85.55;97800.81;6238098;28;20259;-83
2022/06/16 06:22:26;;;;;;;6.17;5.37;;;;;;;16.08;85.41;97799.97;6257479;28;20245;-83
2022/06/16 06:25:41;;;;;;;5.37;4.87;;;;;;;16.31;85.42;97789.66;6231553;28;20715;-84
2022/06/16 06:28:44;;;;;;;6.43;5.67;;;;;;;16.56;84.06;97788.81;6237105;28;20732;-84
2022/06/16 06:31:46;;;;;;;5.00;4.60;;;;;;;16.79;83.50;97787.28;6259878;28;20234;-84
2022/06/16 06:34:48;;;;;;;8.53;5.33;;;;;;;17.05;82.83;97786.41;6214715;28;20322;-84
2022/06/16 06:37:51;;;;;;;4.90;4.50;;;;;;;17.29;82.25;97789.16;6239886;28;20225;-84
2022/06/16 06:40:54;;;;;;;7.73;4.73;;;;;;;17.61;81.48;97785.72;6243719;28;20381;-84
2022/06/16 06:43:57;;;;;;;4.87;4.43;;;;;;;18.03;80.05;97794.47;6206131;28;20730;-84
2022/06/16 06:47:00;;;;;;;4.33;3.93;;;;;;;18.46;78.60;97788.94;6196118;28;20224;-84
2022/06/16 06:50:03;;;;;;;4.63;4.23;;;;;;;18.89;77.32;97788.50;6214818;28;20223;-83
2022/06/16 06:53:06;;;;;;;4.30;3.90;;;;;;;19.08;76.44;97796.09;6231275;28;20223;-83
2022/06/16 06:56:12;;;;;;;4.00;3.60;;;;;;;19.43;74.82;97791.25;6221954;28;20230;-83
2022/06/16 06:59:18;;;;;;;4.43;4.03;;;;;;;19.87;73.78;97783.44;6232428;28;20381;-83
2022/06/16 07:02:21;;;;;;;4.63;4.00;;;;;;;20.26;72.38;97780.63;6250879;28;20258;-84
2022/06/16 07:05:23;;;;;;;3.83;3.53;;;;;;;20.68;70.53;97781.91;6239194;28;20230;-84
2022/06/16 07:08:25;;;;;;;3.70;3.40;;;;;;;21.11;68.91;97774.88;6239173;28;20406;-84
2022/06/16 07:11:27;;;;;;;4.50;3.63;;;;;;;21.40;67.17;97777.53;6239590;28;20617;-84
2022/06/16 07:14:30;;;;;;;4.33;3.93;;;;;;;21.79;66.11;97779.81;6230321;28;20231;-84
2022/06/16 07:17:33;;;;;;;4.80;3.90;;;;;;;22.18;64.34;97781.22;6213926;28;20224;-83
2022/06/16 07:20:35;;;;;;;3.87;3.33;;;;;;;22.46;64.29;97774.84;6237933;28;20231;-83
2022/06/16 07:23:37;;;;;;;3.63;3.30;;;;;;;22.83;63.06;97775.53;6239087;28;20691;-84
2022/06/16 07:26:46;;;;;;;4.27;3.87;;;;;;;23.12;62.26;97771.75;6244389;28;20312;-83
2022/06/16 07:29:49;;;;;;;4.27;3.60;;;;;;;23.41;61.18;97776.03;6233464;28;20239;-84
2022/06/16 07:32:52;;;;;;;5.10;4.60;;;;;;;23.66;58.94;97768.25;6213944;28;20234;-84
2022/06/16 07:35:55;;;;;;;5.47;3.80;;;;;;;23.98;58.70;97774.72;6189134;28;20230;-83
2022/06/16 07:38:57;;;;;;;3.60;3.30;;;;;;;24.47;58.12;97774.34;6213069;28;20249;-83
2022/06/16 07:42:00;;;;;;;3.50;3.20;;;;;;;24.92;56.91;97776.19;6205479;28;20233;-84
2022/06/16 07:45:03;;;;;;;4.30;3.90;;;;;;;25.17;55.78;97781.72;6217126;28;20301;-84
2022/06/16 07:48:07;;;;;;;3.40;3.10;;;;;;;25.59;54.98;97783.00;6230921;28;20208;-84
2022/06/16 07:51:10;;;;;;;3.50;3.20;;;;;;;26.00;54.20;97782.56;6212820;28;20196;-83
2022/06/16 07:54:12;;;;;;;4.20;3.53;;;;;;;26.20;52.12;97777.03;6213543;28;20208;-83
2022/06/16 07:57:45;;;;;;;6.70;3.42;;;;;;;26.41;52.63;97784.81;6206117;28;20236;-84
2022/06/16 08:00:48;;;;;;;3.55;3.25;;;;;;;26.53;52.22;97786.78;6230408;28;20617;-84
2022/06/16 08:03:50;;;;;;;3.60;3.30;;;;;;;26.48;52.62;97778.50;6189854;28;20243;-83
2022/06/16 08:06:52;;;;;;;3.80;3.42;;;;;;;26.53;52.28;97782.19;6209190;28;20596;-84
2022/06/16 08:09:55;;;;;;;4.57;3.30;;;;;;;26.79;52.30;97773.81;6205238;28;20244;-84
2022/06/16 08:12:57;;;;;;;3.67;3.38;;;;;;;26.90;51.80;97784.97;6202636;28;20309;-84
2022/06/16 08:15:59;;;;;;;3.53;3.20;;;;;;;27.08;51.34;97783.13;6212847;28;20239;-83
2022/06/16 08:19:02;;;;;;;4.18;3.60;;;;;;;27.19;51.32;97782.38;6229559;28;20238;-83
2022/06/16 08:22:04;;;;;;;3.65;3.28;;;;;;;27.26;50.94;97779.56;6212410;28;20228;-85
2022/06/16 08:25:08;;;;;;;3.58;3.22;;;;;;;27.38;51.05;97769.63;6196072;28;20235;-85
2022/06/16 08:28:13;;;;;;;3.97;3.60;;;;;;;27.38;50.53;97768.81;6212287;28;20237;-85
2022/06/16 08:31:17;;;;;;;3.90;3.60;;;;;;;27.42;48.19;97772.72;6211459;28;20243;-85
2022/06/16 08:34:19;;;;;;;4.22;3.67;;;;;;;27.63;47.56;97766.84;6229939;28;20615;-86
2022/06/16 08:37:22;;;;;;;3.75;3.42;;;;;;;27.74;47.83;97763.34;6229300;28;20227;-85
2022/06/16 08:40:25;;;;;;;3.45;3.15;;;;;;;28.14;48.06;97763.59;6211456;28;20236;-85
2022/06/16 08:43:32;;;;;;;3.60;3.30;;;;;;;28.12;46.97;97759.44;6229431;28;20236;-85
2022/06/16 08:46:39;;;;;;;4.38;3.70;;;;;;;28.18;45.74;97766.69;6213308;28;20329;-85
2022/06/16 08:50:08;;;;;;;4.88;3.75;;;;;;;28.18;44.30;97766.69;6228308;28;20251;-84
2022/06/16 08:53:16;;;;;;;3.92;3.53;;;;;;;28.32;44.73;97770.03;6212609;28;20219;-84
2022/06/16 08:56:53;;;;;;;3.60;3.28;;;;;;;28.93;45.71;97772.31;6211923;28;20704;-84
2022/06/16 09:00:06;;;;;;;6.63;3.65;;;;;;;29.23;42.25;97764.81;6234027;28;20778;-84
2022/06/16 09:03:10;;;;;;;3.72;3.42;;;;;;;29.38;42.64;97763.50;6195040;28;20262;-84
2022/06/16 09:07:17;;;;;;;5.88;4.10;;;;;;;29.58;42.94;97762.00;6212174;28;20214;-84
2022/06/16 09:10:36;;;;;;;3.47;3.13;;;;;;;29.79;42.84;97765.94;6057069;29;20227;-84
2022/06/16 09:14:01;;;;;;;3.63;3.33;;;;;;;29.89;43.13;97768.84;6062122;29;20426;-84
2022/06/16 09:17:13;;;;;;;4.00;3.33;;;;;;;29.70;42.94;97770.13;6122223;28;20604;-84
2022/06/16 09:20:20;;;;;;;7.53;3.80;;;;;;;29.24;43.33;97765.66;6125338;29;20237;-84
2022/06/16 09:23:37;;;;;;;6.65;3.67;;;;;;;29.41;43.72;97765.75;6100656;29;20237;-84
2022/06/16 09:26:43;;;;;;;3.50;3.20;;;;;;;29.66;44.45;97764.34;6114920;29;20239;-84
2022/06/16 09:30:08;;;;;;;4.63;3.50;;;;;;;30.53;43.35;97764.03;6111731;29;20375;-84
2022/06/16 09:33:20;;;;;;;3.53;3.20;;;;;;;31.22;43.38;97758.22;6188940;28;20380;-84
2022/06/16 09:36:28;;;;;;;4.03;3.63;;;;;;;31.61;40.48;97756.22;6178189;28;20248;-84
2022/06/16 09:39:37;;;;;;;3.83;3.40;;;;;;;31.84;40.75;97750.53;6177091;28;20243;-84
2022/06/16 09:42:55;;;;;;;4.32;3.05;;;;;;;31.59;39.12;97734.66;6176960;28;20702;-84
2022/06/16 09:46:10;;;;;;;3.67;3.38;;;;;;;30.28;40.05;97739.88;6198642;28;20715;-84
2022/06/16 09:50:02;;;;;;;4.25;3.53;;;;;;;30.75;40.16;97734.91;6205010;28;20394;-84
2022/06/16 09:53:32;;;;;;;6.38;3.70;;;;;;;31.03;39.55;97731.22;6124017;28;20605;-84
2022/06/16 09:56:42;;;;;;;5.80;3.50;;;;;;;31.26;39.20;97718.44;6134389;28;20238;-84
2022/06/16 09:59:50;;;;;;;5.30;3.85;;;;;;;31.20;38.02;97717.56;6134133;28;20245;-84
2022/06/16 10:02:57;;;;;;;4.10;3.70;;;;;;;30.87;38.39;97715.72;6150565;28;20234;-84
2022/06/16 10:06:20;;;;;;;6.22;3.20;;;;;;;31.60;39.48;97711.75;6135541;28;20239;-84
2022/06/16 10:09:31;;;;;;;3.67;3.38;;;;;;;32.13;36.97;97707.38;6117511;28;20234;-84
2022/06/16 10:13:00;;;;;;;4.35;3.13;;;;;;;31.58;36.58;97704.88;6134377;28;20276;-83
2022/06/16 10:16:17;;;;;;;5.82;3.05;;;;;;;31.42;37.54;97710.19;6134153;28;20789;-84
2022/06/16 10:19:22;;;;;;;3.90;3.20;;;;;;;31.76;36.78;97719.03;6133830;28;20726;-84
2022/06/16 10:22:26;;;;;;;9.20;3.75;;;;;;;31.52;36.61;97717.66;6133173;28;20239;-84
2022/06/16 10:25:35;;;;;;;5.03;3.05;;;;;;;31.49;36.93;97705.34;6154706;28;20242;-84
2022/06/16 10:28:52;;;;;;;3.22;2.92;;;;;;;32.05;36.47;97703.19;6145197;28;20335;-83
2022/06/16 10:31:57;;;;;;;4.53;2.80;;;;;;;32.42;36.93;97708.72;6244554;28;20327;-84
2022/06/16 10:35:00;;;;;;;4.03;3.17;;;;;;;32.94;36.50;97710.72;6215873;28;20231;-84
2022/06/16 10:38:03;;;;;;;6.70;3.10;;;;;;;33.20;34.80;97714.38;6248175;28;20604;-84
2022/06/16 10:41:22;;;;;;;4.22;2.83;;;;;;;33.17;35.90;97713.00;6214965;28;20228;-84
2022/06/16 10:44:27;;;;;;;6.50;3.22;;;;;;;32.74;34.37;97716.91;6218099;28;20711;-84
2022/06/16 10:47:51;;;;;;;5.05;3.10;;;;;;;32.66;33.94;97722.81;6263342;28;20723;-84
2022/06/16 10:51:25;;;;;;;5.45;3.15;;;;;;;31.40;35.69;97731.44;6215287;28;20228;-84
2022/06/16 10:54:31;;;;;;;3.65;2.90;;;;;;;31.83;37.31;97730.59;6231547;28;20739;-84
2022/06/16 10:57:42;;;;;;;3.58;2.83;;;;;;;32.98;35.71;97717.28;6231884;28;20716;-84
2022/06/16 11:01:08;;;;;;;2.95;2.65;;;;;;;33.24;32.56;97726.47;6231586;28;20708;-84
2022/06/16 11:04:16;;;;;;;4.65;2.70;;;;;;;33.52;32.75;97722.47;6213675;28;20703;-84
2022/06/16 11:07:22;;;;;;;3.80;2.78;;;;;;;33.79;31.89;97719.53;6231608;28;20315;-85
2022/06/16 11:10:34;;;;;;;3.10;2.80;;;;;;;33.85;33.90;97727.47;6246764;28;20899;-84
2022/06/16 11:13:43;;;;;;;3.67;2.60;;;;;;;33.08;33.19;97717.34;6206318;28;20244;-84
2022/06/16 11:16:50;;;;;;;3.03;2.65;;;;;;;33.15;34.97;97722.56;6220230;28;20244;-84
2022/06/16 11:20:27;;;;;;;2.97;2.42;;;;;;;33.98;34.31;97723.41;6205896;28;20266;-84
2022/06/16 11:23:43;;;;;;;3.00;2.78;;;;;;;34.43;34.05;97720.72;6192779;28;20232;-84
2022/06/16 11:26:45;;;;;;;3.63;2.45;;;;;;;34.31;35.64;97713.88;6231818;28;20228;-84
2022/06/16 11:29:47;;;;;;;2.70;2.50;;;;;;;34.34;35.82;97719.59;6245933;28;20294;-84
2022/06/16 11:32:50;;;;;;;2.90;2.50;;;;;;;34.74;36.01;97717.91;6213690;28;20707;-84
2022/06/16 11:35:57;;;;;;;3.00;2.75;;;;;;;34.19;35.12;97713.28;6189086;28;20596;-85
2022/06/16 11:39:19;;;;;;;3.30;2.67;;;;;;;34.49;33.05;97701.50;6197091;28;20231;-84
2022/06/16 11:42:51;;;;;;;4.35;2.60;;;;;;;35.10;35.19;97696.72;6212540;28;20236;-84
2022/06/16 11:46:06;;;;;;;4.03;2.60;;;;;;;35.33;33.35;97696.09;6213589;28;20238;-84
2022/06/16 11:49:29;;;;;;;4.10;3.00;;;;;;;35.35;32.75;97673.84;6212728;28;20235;-85
2022/06/16 11:52:48;;;;;;;2.92;2.72;;;;;;;35.72;31.43;97665.13;6226711;28;20237;-84
2022/06/16 11:56:04;;;;;;;3.00;2.78;;;;;;;35.47;30.30;97664.16;6201584;28;20366;-84
2022/06/16 11:59:20;;;;;;;5.78;2.75;;;;;;;34.73;29.91;97664.19;6229726;28;20318;-84
2022/06/16 12:02:44;;;;;;;4.30;3.03;;;;;;;34.68;31.00;97658.69;6228242;28;20232;-84
2022/06/16 12:06:15;;;;;;;3.28;2.92;;;;;;;35.43;29.92;97648.56;6230349;28;20239;-84
2022/06/16 12:09:42;;;;;;;3.88;2.55;;;;;;;36.08;30.45;97643.69;6204188;28;20230;-85
2022/06/16 12:12:59;;;;;;;2.85;2.63;;;;;;;36.41;27.73;97639.31;6211766;28;20240;-85
2022/06/16 12:16:27;;;;;;;3.10;2.53;;;;;;;36.48;29.00;97639.78;6212400;28;20239;-82
2022/06/16 12:19:54;;;;;;;4.03;2.60;;;;;;;36.31;28.51;97631.97;6211922;28;20681;-84
2022/06/16 12:23:33;;;;;;;2.88;2.67;;;;;;;35.97;30.01;97620.97;6207078;28;20241;-84
2022/06/16 12:26:51;;;;;;;3.33;2.92;;;;;;;36.33;28.40;97620.69;6229173;28;20345;-84
2022/06/16 12:30:13;;;;;;;3.15;2.55;;;;;;;36.17;28.56;97615.31;6229072;28;20252;-82
2022/06/16 12:33:33;;;;;;;3.28;2.97;;;;;;;35.40;29.53;97621.66;6228428;28;20224;-85
2022/06/16 12:36:53;;;;;;;3.15;2.72;;;;;;;35.63;28.48;97617.41;6230197;28;20759;-82
2022/06/16 12:40:01;;;;;;;4.07;3.03;;;;;;;36.01;28.28;97613.81;6229590;28;20771;-83
2022/06/16 12:43:10;;;;;;;4.75;3.13;;;;;;;36.09;28.55;97612.38;6229926;28;20715;-85
2022/06/16 12:46:26;;;;;;;3.10;2.65;;;;;;;36.33;27.70;97616.03;6228043;28;20234;-84
2022/06/16 12:49:38;;;;;;;2.70;2.50;;;;;;;35.82;28.58;97610.13;6195413;28;20259;-84
2022/06/16 12:52:57;;;;;;;3.80;2.80;;;;;;;36.37;28.84;97614.31;6228681;28;20319;-84
2022/06/16 12:56:03;;;;;;;3.70;2.67;;;;;;;36.20;28.17;97609.25;6211131;28;20223;-82
2022/06/16 12:59:30;;;;;;;3.63;2.60;;;;;;;36.20;29.48;97619.41;6210173;28;20231;-85
2022/06/16 13:02:38;;;;;;;4.13;2.53;;;;;;;36.07;31.24;97629.13;6229364;28;20228;-82
2022/06/16 13:05:40;;;;;;;2.90;2.53;;;;;;;35.96;32.75;97627.59;6195727;28;20250;-83
2022/06/16 13:08:47;;;;;;;3.40;2.60;;;;;;;36.24;32.67;97631.47;6211849;28;20228;-82
2022/06/16 13:12:04;;;;;;;2.63;2.42;;;;;;;36.07;33.54;97631.06;6228811;28;20220;-84
2022/06/16 13:15:14;;;;;;;4.57;2.78;;;;;;;35.61;32.89;97631.41;6190331;28;20504;-82
2022/06/16 13:18:21;;;;;;;3.00;2.70;;;;;;;34.84;34.69;97640.31;6205052;28;20211;-85
2022/06/16 13:21:36;;;;;;;3.65;3.08;;;;;;;34.58;35.38;97628.56;6229139;28;20660;-84
2022/06/16 13:24:51;;;;;;;2.72;2.53;;;;;;;34.54;35.46;97619.28;6216552;28;20285;-83
2022/06/16 13:27:56;;;;;;;3.70;2.35;;;;;;;34.33;36.40;97616.56;6192896;28;20233;-84
2022/06/16 13:31:10;;;;;;;2.97;2.40;;;;;;;34.34;36.42;97612.72;6221633;28;20337;-84
2022/06/16 13:34:41;;;;;;;4.10;2.72;;;;;;;34.69;36.34;97606.31;6221387;28;20627;-84
2022/06/16 13:38:02;;;;;;;4.43;2.70;;;;;;;35.13;33.69;97589.16;6258548;28;20239;-84
2022/06/16 13:41:43;;;;;;;3.67;2.42;;;;;;;35.01;36.02;97588.66;6240315;28;20237;-84
2022/06/16 13:45:21;;;;;;;2.58;2.38;;;;;;;34.85;36.15;97570.63;6257397;28;20737;-84
2022/06/16 13:48:43;;;;;;;5.93;2.65;;;;;;;34.63;36.57;97574.53;6168705;28;20229;-85
2022/06/16 13:52:05;;;;;;;2.75;2.50;;;;;;;33.94;38.32;97574.41;6167543;28;20308;-84
2022/06/16 13:55:28;;;;;;;2.58;2.38;;;;;;;33.86;38.53;97569.47;6182387;28;20244;-84
2022/06/16 13:58:33;;;;;;;2.75;2.55;;;;;;;33.89;37.92;97577.16;6183860;28;20259;-84
2022/06/16 14:02:18;;;;;;;3.33;2.35;;;;;;;33.37;38.83;97582.84;6176557;28;20693;-84
2022/06/16 14:05:29;;;;;;;2.60;2.40;;;;;;;32.85;39.83;97598.28;6110735;29;20328;-84
2022/06/16 14:08:33;;;;;;;2.60;2.38;;;;;;;32.53;40.49;97608.50;6094761;29;20742;-84
2022/06/16 14:11:35;;;;;;;3.38;2.63;;;;;;;31.83;41.36;97596.81;6094415;29;20306;-84
2022/06/16 14:14:56;;;;;;;3.55;2.80;;;;;;;31.30;42.31;97596.84;6110076;29;20237;-84
2022/06/16 14:18:13;;;;;;;2.63;2.40;;;;;;;31.05;43.82;97611.00;6110453;29;20922;-82
2022/06/16 14:21:18;;;;;;;3.17;2.60;;;;;;;30.23;45.27;97625.47;6109197;29;20254;-84
2022/06/16 14:24:26;;;;;;;3.45;3.03;;;;;;;29.73;43.79;97637.16;6111681;29;20598;-84
2022/06/16 14:27:36;;;;;;;4.30;3.08;;;;;;;29.07;44.45;97637.78;6134115;29;20444;-84
2022/06/16 14:30:46;;;;;;;3.75;2.70;;;;;;;28.76;46.44;97649.91;6129465;29;20223;-84
2022/06/16 14:34:02;;;;;;;3.22;3.00;;;;;;;28.75;46.96;97661.84;6106695;29;20231;-84
2022/06/16 14:37:17;;;;;;;3.10;2.80;;;;;;;28.32;47.25;97656.00;6213896;28;20366;-84
2022/06/16 14:40:34;;;;;;;4.80;2.92;;;;;;;28.22;47.80;97652.00;6214221;28;20228;-84
2022/06/16 14:43:46;;;;;;;4.00;2.60;;;;;;;28.40;48.02;97656.47;6233241;28;20295;-84
2022/06/16 14:46:51;;;;;;;3.72;2.90;;;;;;;28.20;48.66;97658.72;6215097;28;20239;-84
2022/06/16 14:50:13;;;;;;;3.35;2.90;;;;;;;27.98;50.00;97649.44;6214769;28;20228;-85
2022/06/16 14:53:21;;;;;;;6.10;3.50;;;;;;;27.42;50.11;97646.13;6232454;28;20239;-85
2022/06/16 14:56:24;;;;;;;3.10;2.90;;;;;;;27.45;51.44;97639.44;6215687;28;20666;-84
2022/06/16 14:59:39;;;;;;;2.85;2.65;;;;;;;27.68;50.94;97641.38;6232624;28;20268;-84
2022/06/16 15:02:41;;;;;;;3.35;2.90;;;;;;;27.61;51.72;97646.94;6232142;28;20259;-84
2022/06/16 15:05:44;;;;;;;3.30;3.00;;;;;;;27.29;52.97;97646.31;6232429;28;20602;-84
2022/06/16 15:08:52;;;;;;;3.72;2.90;;;;;;;26.78;54.34;97657.59;6231943;28;20240;-84
2022/06/16 15:11:59;;;;;;;3.13;2.90;;;;;;;26.12;56.43;97671.78;6214018;28;20699;-84
2022/06/16 15:15:01;;;;;;;7.20;4.55;;;;;;;25.51;59.38;97664.31;6214152;28;20755;-83
2022/06/16 15:18:13;;;;;;;11.00;4.28;;;;;;;25.27;62.22;97636.19;6215007;28;20204;-82
2022/06/16 15:21:16;;;;;;;5.28;3.92;;;;;;;24.84;64.20;97637.88;6214084;28;20647;-83